Yellowstone — 9V2870 — position and weather

sailwx.info

Track history (hours):
 
Tides and Currents Weather Stations Pressure Air Temp Water Temp Dewpoint Dewpoint Depression Visibility Wind Speed Wind Dir Waves Ship Positions

Yellowstone

Last reported at 2018-Feb-21 14:18 UTC. Time now 2018-Feb-21 15:29 UTC.
Position N 29°45' W 095°06'.

Type: Cargo ship. MMSI: 365042000.

Date/timePositionNaut miles runAvg speedWind from/ knotsBaromVisibWave heightAir tempDewpointWater temp
2018-Feb-21 14:18N 29°45' W 095°06'0 0.0
2018-Feb-21 13:42N 29°45' W 095°06'0 0.0
2018-Feb-21 13:30N 29°45' W 095°06'0 0.0
2018-Feb-21 13:00N 29°45' W 095°06'0 0.0
2018-Feb-21 12:30N 29°45' W 095°06'0 0.0
2018-Feb-21 12:00N 29°45' W 095°06'0 0.0
2018-Feb-21 11:30N 29°45' W 095°06'0 0.0
2018-Feb-21 10:57N 29°45' W 095°06'0 0.0
2018-Feb-21 10:21N 29°45' W 095°06'0 0.0
2018-Feb-21 09:57N 29°45' W 095°06'0 0.0
2018-Feb-21 09:30N 29°45' W 095°06'0 0.0
2018-Feb-21 08:42N 29°45' W 095°06'0 0.0
2018-Feb-21 08:30N 29°45' W 095°06'0 0.0
2018-Feb-21 07:57N 29°45' W 095°06'0 0.0
2018-Feb-21 07:30N 29°45' W 095°06'0 0.0
2018-Feb-21 06:57N 29°45' W 095°06'0 0.0
2018-Feb-21 06:15N 29°45' W 095°06'0 0.0
2018-Feb-21 05:54N 29°45' W 095°06'0 0.0
2018-Feb-21 05:30N 29°45' W 095°06'0 0.0
2018-Feb-21 04:48N 29°45' W 095°06'0 0.0
2018-Feb-21 04:30N 29°45' W 095°06'0 0.0
2018-Feb-21 03:57N 29°45' W 095°06'0 0.0
2018-Feb-21 03:27N 29°45' W 095°06'0 0.0
2018-Feb-21 03:00N 29°45' W 095°06'1 2.8
2018-Feb-21 02:30N 29°46' W 095°05'4 7.8
2018-Feb-21 02:00N 29°44' W 095°01'4 8.7
2018-Feb-21 01:30N 29°40' W 094°59'510.6
2018-Feb-21 01:01N 29°35' W 094°56'611.1
2018-Feb-21 00:31N 29°31' W 094°53'611.1
2018-Feb-21 00:00N 29°26' W 094°50'810.5
2018-Feb-20 23:15N 29°21' W 094°43'311.6
2018-Feb-20 22:59N 29°19' W 094°39'510.8
2018-Feb-20 22:29N 29°17' W 094°34'3 6.5
2018-Feb-20 21:59N 29°18' W 094°30'0 1.0
2018-Feb-20 21:30N 29°18' W 094°30'0 0.0
2018-Feb-20 13:29N 29°18' W 094°30'0 0.0
2018-Feb-20 13:00N 29°18' W 094°30'0 0.0
2018-Feb-20 12:22N 29°18' W 094°30'0 0.0
2018-Feb-20 06:58N 29°18' W 094°30'0 0.0
2018-Feb-20 06:31N 29°18' W 094°30'0 0.0
2018-Feb-19 19:47N 29°18' W 094°30'0 0.4
2018-Feb-19 19:30N 29°18' W 094°30'1 1.8
2018-Feb-19 18:59N 29°19' W 094°29'510.5
2018-Feb-19 18:30N 29°15' W 094°24'611.4
2018-Feb-19 18:00N 29°12' W 094°19'611.1
2018-Feb-19 17:26N 29°16' W 094°13'510.8
2018-Feb-19 17:00N 29°19' W 094°09'510.4
2018-Feb-19 16:30N 29°23' W 094°05'510.4
2018-Feb-19 16:00N 29°27' W 094°01'510.2
2018-Feb-19 15:30N 29°29' W 093°56'510.6
2018-Feb-19 15:00N 29°30' W 093°50'5 9.6
2018-Feb-19 14:30N 29°32' W 093°44'5 9.6
2018-Feb-19 14:00N 29°29' W 093°40'3 5.7
2018-Feb-19 13:30N 29°26' W 093°38'0 0.3
2018-Feb-19 12:46N 29°27' W 093°38'0 0.0
2018-Feb-19 12:29N 29°27' W 093°38'0 0.0
2018-Feb-19 11:46N 29°27' W 093°38'0 0.0
2018-Feb-19 10:13N 29°27' W 093°38'0 0.0
2018-Feb-19 09:46N 29°27' W 093°38'0 0.0
2018-Feb-19 09:30N 29°27' W 093°38'0 0.0
2018-Feb-19 08:24N 29°27' W 093°38'0 0.0
2018-Feb-19 07:54N 29°27' W 093°38'0 0.0
2018-Feb-19 07:31N 29°27' W 093°38'0 0.0
2018-Feb-19 07:00N 29°27' W 093°38'0 0.0
2018-Feb-19 06:30N 29°27' W 093°38'0 0.0
2018-Feb-19 05:50N 29°27' W 093°38'0 0.0
2018-Feb-19 05:14N 29°27' W 093°38'0 0.0
2018-Feb-19 05:00N 29°27' W 093°38'0 0.0
2018-Feb-19 04:31N 29°27' W 093°38'0 0.0
2018-Feb-19 03:59N 29°26' W 093°38'0 0.0
2018-Feb-19 03:27N 29°26' W 093°38'0 0.1
2018-Feb-19 01:42N 29°26' W 093°38'0 0.4
2018-Feb-19 01:31N 29°26' W 093°38'2 3.0
2018-Feb-19 00:59N 29°27' W 093°40'4 7.6
2018-Feb-19 00:30N 29°30' W 093°42'510.6
2018-Feb-19 00:00N 29°34' W 093°46'5 9.8
2018-Feb-18 23:30N 29°38' W 093°49'4 8.7
2018-Feb-18 23:01N 29°42' W 093°51'4 7.1
2018-Feb-18 22:30N 29°45' W 093°53'4 8.4
2018-Feb-18 22:00N 29°48' W 093°57'2 4.7
2018-Feb-18 21:31N 29°50' W 093°58'0 0.9
2018-Feb-18 21:00N 29°50' W 093°57'0 0.0
2018-Feb-18 20:31N 29°50' W 093°57'0 0.0
2018-Feb-18 19:58N 29°50' W 093°57'0 0.0
2018-Feb-18 19:28N 29°50' W 093°57'0 0.0
2018-Feb-18 18:58N 29°50' W 093°57'0 0.0
2018-Feb-18 18:28N 29°50' W 093°57'0 0.0
2018-Feb-18 17:58N 29°50' W 093°57'0 0.0
2018-Feb-18 17:28N 29°50' W 093°57'0 0.0
2018-Feb-18 16:58N 29°50' W 093°57'0 0.0
2018-Feb-18 16:28N 29°50' W 093°57'0 0.0
2018-Feb-18 15:58N 29°50' W 093°57'0 0.0
2018-Feb-18 15:29N 29°50' W 093°57'0 0.0
2018-Feb-18 14:58N 29°50' W 093°57'0 0.0
2018-Feb-18 14:28N 29°50' W 093°57'0 0.0
2018-Feb-18 13:58N 29°50' W 093°57'0 0.0
2018-Feb-18 13:28N 29°50' W 093°57'0 0.0
2018-Feb-18 12:58N 29°50' W 093°57'0 0.0
2018-Feb-18 12:28N 29°50' W 093°57'0 0.0
2018-Feb-18 11:59N 29°50' W 093°57'0 0.0
2018-Feb-18 11:28N 29°50' W 093°57'0 0.0
2018-Feb-18 10:58N 29°50' W 093°57'0 0.0
2018-Feb-18 10:28N 29°50' W 093°57'0 0.0
2018-Feb-18 09:58N 29°50' W 093°57'0 0.0
2018-Feb-18 09:28N 29°50' W 093°57'0 0.0
2018-Feb-18 08:58N 29°50' W 093°57'0 0.0
2018-Feb-18 08:28N 29°50' W 093°57'0 0.0
2018-Feb-18 07:58N 29°50' W 093°57'0 0.0
2018-Feb-18 07:28N 29°50' W 093°57'0 0.0
2018-Feb-18 06:58N 29°50' W 093°57'0 0.0
2018-Feb-18 06:28N 29°50' W 093°57'0 0.0
2018-Feb-18 05:58N 29°50' W 093°57'0 0.0
2018-Feb-18 05:28N 29°50' W 093°57'0 0.0
2018-Feb-18 04:58N 29°50' W 093°57'0 0.0
2018-Feb-18 04:28N 29°50' W 093°57'0 0.0
2018-Feb-18 03:58N 29°50' W 093°57'0 0.0
2018-Feb-18 03:28N 29°50' W 093°57'0 0.0
2018-Feb-18 02:58N 29°50' W 093°57'0 0.0
2018-Feb-18 02:28N 29°50' W 093°57'0 0.0
2018-Feb-18 01:58N 29°50' W 093°57'0 0.0
2018-Feb-18 01:28N 29°50' W 093°57'0 0.0
2018-Feb-18 00:58N 29°50' W 093°57'0 0.0
2018-Feb-18 00:28N 29°50' W 093°57'0 0.0
2018-Feb-17 23:58N 29°50' W 093°57'0 0.0
2018-Feb-17 23:28N 29°50' W 093°57'0 0.0
2018-Feb-17 22:58N 29°50' W 093°57'0 0.0
2018-Feb-17 22:28N 29°50' W 093°57'0 0.0
2018-Feb-17 21:59N 29°50' W 093°57'0 0.0
2018-Feb-17 21:28N 29°50' W 093°57'0 0.0
2018-Feb-17 20:58N 29°50' W 093°57'0 0.0
2018-Feb-17 20:28N 29°50' W 093°57'0 0.0
2018-Feb-17 19:58N 29°50' W 093°57'0 0.0
2018-Feb-17 19:28N 29°50' W 093°57'0 0.0
2018-Feb-17 18:58N 29°50' W 093°57'0 0.0
2018-Feb-17 18:28N 29°50' W 093°57'0 0.0
2018-Feb-17 17:58N 29°50' W 093°57'0 0.0
2018-Feb-17 17:28N 29°50' W 093°57'0 0.0
2018-Feb-17 16:58N 29°50' W 093°57'0 0.0
2018-Feb-17 16:28N 29°50' W 093°57'0 0.0
2018-Feb-17 15:58N 29°50' W 093°57'0 0.0
2018-Feb-17 15:28N 29°50' W 093°57'0 0.0
2018-Feb-17 14:58N 29°50' W 093°57'0 0.0
2018-Feb-17 14:29N 29°50' W 093°57'0 0.0
2018-Feb-17 13:58N 29°50' W 093°57'0 0.0
2018-Feb-17 13:29N 29°50' W 093°57'0 0.0
2018-Feb-17 12:58N 29°50' W 093°57'0 0.0
2018-Feb-17 12:29N 29°50' W 093°57'0 0.0
2018-Feb-17 11:58N 29°50' W 093°57'0 0.0
2018-Feb-17 11:28N 29°50' W 093°57'0 0.0
2018-Feb-17 10:58N 29°50' W 093°57'0 0.0
2018-Feb-17 10:29N 29°50' W 093°57'0 0.0
2018-Feb-17 09:58N 29°50' W 093°57'0 0.0
2018-Feb-17 09:28N 29°50' W 093°57'0 0.0
2018-Feb-17 08:58N 29°50' W 093°57'0 0.0
2018-Feb-17 08:28N 29°50' W 093°57'0 0.0
2018-Feb-17 07:59N 29°50' W 093°57'0 0.0
2018-Feb-17 07:28N 29°50' W 093°57'0 0.0
2018-Feb-17 07:01N 29°50' W 093°57'0 0.0
2018-Feb-17 06:30N 29°50' W 093°57'0 0.0
2018-Feb-17 06:00N 29°50' W 093°57'0 0.0
2018-Feb-17 05:30N 29°50' W 093°57'0 0.0
2018-Feb-17 05:00N 29°50' W 093°57'0 0.0
2018-Feb-17 04:30N 29°50' W 093°57'0 0.0
2018-Feb-17 04:00N 29°50' W 093°57'0 0.0
2018-Feb-17 03:30N 29°50' W 093°57'0 0.0
2018-Feb-17 03:00N 29°50' W 093°57'0 0.0
2018-Feb-17 02:30N 29°50' W 093°57'0 0.0
2018-Feb-17 02:00N 29°50' W 093°57'0 0.0
2018-Feb-17 01:30N 29°50' W 093°57'0 0.0
2018-Feb-17 01:00N 29°50' W 093°57'0 0.0
2018-Feb-17 00:30N 29°50' W 093°57'0 0.0
2018-Feb-17 00:00N 29°50' W 093°57'0 0.0
2018-Feb-16 23:30N 29°50' W 093°57'0 0.0
2018-Feb-16 23:00N 29°50' W 093°57'0 0.0
2018-Feb-16 22:30N 29°50' W 093°57'0 0.0
2018-Feb-16 22:00N 29°50' W 093°57'0 0.0
2018-Feb-16 21:30N 29°50' W 093°57'0 0.0
2018-Feb-16 21:00N 29°50' W 093°57'0 0.0
2018-Feb-16 20:30N 29°50' W 093°57'0 0.0
2018-Feb-16 20:00N 29°50' W 093°57'0 0.0
2018-Feb-16 19:30N 29°50' W 093°57'0 0.0
2018-Feb-16 19:00N 29°50' W 093°57'0 0.0
2018-Feb-16 18:30N 29°50' W 093°57'0 0.0
2018-Feb-16 18:00N 29°50' W 093°57'0 0.0
2018-Feb-16 17:30N 29°50' W 093°57'0 0.0
2018-Feb-16 17:00N 29°50' W 093°57'0 0.0
2018-Feb-16 16:30N 29°50' W 093°57'0 0.0
2018-Feb-16 16:00N 29°50' W 093°57'0 0.0
2018-Feb-16 15:30N 29°50' W 093°57'0 0.0
2018-Feb-16 15:00N 29°50' W 093°57'0 0.0
2018-Feb-16 14:30N 29°50' W 093°57'0 0.0
2018-Feb-16 14:00N 29°50' W 093°57'0 0.0
2018-Feb-16 13:30N 29°50' W 093°57'0 0.0
2018-Feb-16 13:00N 29°50' W 093°57'0 0.0
2018-Feb-16 12:30N 29°50' W 093°57'0 0.0
2018-Feb-16 12:00N 29°50' W 093°57'0 0.0
2018-Feb-16 11:30N 29°50' W 093°57'0 0.0
2018-Feb-16 11:00N 29°50' W 093°57'0 0.0
2018-Feb-16 10:30N 29°50' W 093°57'0 0.0
2018-Feb-16 10:00N 29°50' W 093°57'0 0.0
2018-Feb-16 09:30N 29°50' W 093°57'0 0.0
2018-Feb-16 09:00N 29°50' W 093°57'0 0.0
2018-Feb-16 08:30N 29°50' W 093°57'0 0.0
2018-Feb-16 08:00N 29°50' W 093°57'0 0.0
2018-Feb-16 07:30N 29°50' W 093°57'0 0.0
2018-Feb-16 07:00N 29°50' W 093°57'0 0.0
2018-Feb-16 06:30N 29°50' W 093°57'0 0.0
2018-Feb-16 06:00N 29°50' W 093°57'0 0.0
2018-Feb-16 05:30N 29°50' W 093°57'0 0.0
2018-Feb-16 05:00N 29°50' W 093°57'0 0.0
2018-Feb-16 04:30N 29°50' W 093°57'0 0.0
2018-Feb-16 04:00N 29°50' W 093°57'0 0.0
2018-Feb-16 03:30N 29°50' W 093°57'0 0.0
2018-Feb-16 03:00N 29°50' W 093°57'0 0.0
2018-Feb-16 02:27N 29°50' W 093°57'0 0.0
2018-Feb-16 02:00N 29°50' W 093°57'0 0.0
2018-Feb-16 01:30N 29°50' W 093°57'0 0.0
2018-Feb-16 01:00N 29°50' W 093°57'0 0.0
2018-Feb-16 00:30N 29°50' W 093°57'0 0.0
2018-Feb-16 00:00N 29°50' W 093°57'0 0.0
2018-Feb-15 23:30N 29°50' W 093°57'0 0.0
2018-Feb-15 23:00N 29°50' W 093°57'0 0.0
2018-Feb-15 22:30N 29°50' W 093°57'0 0.0
2018-Feb-15 22:00N 29°50' W 093°57'0 0.0
2018-Feb-15 21:30N 29°50' W 093°57'0 0.0
2018-Feb-15 21:00N 29°50' W 093°57'0 0.0
2018-Feb-15 20:30N 29°50' W 093°57'0 0.0
2018-Feb-15 20:00N 29°50' W 093°57'0 0.0
2018-Feb-15 19:30N 29°50' W 093°57'0 0.0
2018-Feb-15 19:00N 29°50' W 093°57'0 0.0
2018-Feb-15 18:30N 29°50' W 093°57'0 0.0
2018-Feb-15 18:00N 29°50' W 093°57'0 0.0
2018-Feb-15 17:30N 29°50' W 093°57'0 0.0
2018-Feb-15 16:57N 29°50' W 093°57'0 0.0
2018-Feb-15 16:30N 29°50' W 093°57'0 0.0
2018-Feb-15 16:00N 29°50' W 093°57'0 0.0
2018-Feb-15 15:30N 29°50' W 093°57'0 0.0
2018-Feb-15 15:00N 29°50' W 093°57'0 0.0
2018-Feb-15 14:30N 29°50' W 093°57'0 0.0
2018-Feb-15 14:00N 29°50' W 093°57'0 0.0
2018-Feb-15 13:30N 29°50' W 093°57'0 0.0
2018-Feb-15 13:00N 29°50' W 093°57'0 0.0
2018-Feb-15 12:30N 29°50' W 093°57'0 0.0
2018-Feb-15 12:00N 29°50' W 093°57'0 0.0
2018-Feb-15 11:30N 29°50' W 093°57'0 0.0
2018-Feb-15 11:00N 29°50' W 093°57'0 0.0
2018-Feb-15 10:30N 29°50' W 093°57'0 0.0
2018-Feb-15 10:00N 29°50' W 093°57'0 0.0
2018-Feb-15 09:30N 29°50' W 093°57'0 0.0
2018-Feb-15 09:00N 29°50' W 093°57'0 0.0
2018-Feb-15 08:30N 29°50' W 093°57'0 0.0
2018-Feb-15 08:00N 29°50' W 093°57'0 0.0
2018-Feb-15 07:30N 29°50' W 093°57'0 0.0
2018-Feb-15 06:59N 29°50' W 093°57'0 0.0
2018-Feb-15 06:29N 29°50' W 093°57'0 0.0
2018-Feb-15 05:59N 29°50' W 093°57'0 0.0
2018-Feb-15 05:29N 29°50' W 093°57'0 0.0
2018-Feb-15 04:59N 29°50' W 093°57'0 0.0
2018-Feb-15 04:29N 29°50' W 093°57'0 0.0
2018-Feb-15 03:59N 29°50' W 093°57'0 0.0
2018-Feb-15 03:29N 29°50' W 093°57'0 0.0
2018-Feb-15 02:59N 29°50' W 093°57'0 0.0
2018-Feb-15 02:29N 29°50' W 093°57'0 0.0
2018-Feb-15 01:59N 29°50' W 093°57'0 0.0
2018-Feb-15 01:29N 29°50' W 093°57'0 0.0
2018-Feb-15 00:59N 29°50' W 093°57'0 0.0
2018-Feb-15 00:29N 29°50' W 093°57'0 0.0
2018-Feb-14 23:59N 29°50' W 093°57'0 0.0
2018-Feb-14 23:29N 29°50' W 093°57'0 0.0
2018-Feb-14 22:59N 29°50' W 093°57'0 0.0
2018-Feb-14 22:29N 29°50' W 093°57'0 0.0
2018-Feb-14 21:59N 29°50' W 093°57'0 0.0
2018-Feb-14 21:29N 29°50' W 093°57'0 0.0
2018-Feb-14 20:59N 29°50' W 093°57'0 0.0
2018-Feb-14 20:29N 29°50' W 093°57'0 0.0
2018-Feb-14 19:59N 29°50' W 093°57'0 0.0
2018-Feb-14 19:29N 29°50' W 093°57'0 0.0
2018-Feb-14 18:59N 29°50' W 093°57'0 0.0
2018-Feb-14 18:29N 29°50' W 093°57'0 0.0
2018-Feb-14 17:59N 29°50' W 093°57'0 0.0
2018-Feb-14 17:29N 29°50' W 093°57'0 0.0
2018-Feb-14 16:59N 29°50' W 093°57'0 0.0
2018-Feb-14 16:29N 29°50' W 093°57'0 0.0
2018-Feb-14 15:59N 29°50' W 093°57'0 0.0
2018-Feb-14 15:29N 29°50' W 093°57'0 0.0
2018-Feb-14 14:59N 29°50' W 093°57'0 0.0
2018-Feb-14 14:29N 29°50' W 093°57'0 0.0
2018-Feb-14 13:59N 29°50' W 093°57'0 0.0
2018-Feb-14 13:29N 29°50' W 093°57'0 0.0
2018-Feb-14 12:59N 29°50' W 093°57'0 0.0
2018-Feb-14 12:29N 29°50' W 093°57'0 0.0
2018-Feb-14 11:59N 29°50' W 093°57'0 0.0
2018-Feb-14 11:29N 29°50' W 093°57'0 0.0
2018-Feb-14 10:59N 29°50' W 093°57'0 0.0
2018-Feb-14 10:29N 29°50' W 093°57'0 0.0
2018-Feb-14 09:59N 29°50' W 093°57'0 0.0
2018-Feb-14 09:29N 29°50' W 093°57'0 0.0
2018-Feb-14 08:59N 29°50' W 093°57'0 0.0
2018-Feb-14 08:29N 29°50' W 093°57'0 0.0
2018-Feb-14 07:59N 29°50' W 093°57'0 0.0
2018-Feb-14 07:29N 29°50' W 093°57'0 0.0
2018-Feb-14 06:59N 29°50' W 093°57'0 0.0
2018-Feb-14 06:29N 29°50' W 093°57'0 0.0
2018-Feb-14 05:59N 29°50' W 093°57'0 0.0
2018-Feb-14 05:29N 29°50' W 093°57'0 0.0
2018-Feb-14 04:59N 29°50' W 093°57'0 0.0
2018-Feb-14 04:29N 29°50' W 093°57'0 0.0
2018-Feb-14 03:59N 29°50' W 093°57'0 0.0
2018-Feb-14 03:29N 29°50' W 093°57'0 0.0
2018-Feb-14 02:59N 29°50' W 093°57'0 0.0
2018-Feb-14 02:29N 29°50' W 093°57'0 0.0
2018-Feb-14 01:59N 29°50' W 093°57'0 0.0
2018-Feb-14 01:29N 29°50' W 093°57'0 0.0
2018-Feb-14 00:59N 29°50' W 093°57'0 0.0
2018-Feb-14 00:29N 29°50' W 093°57'0 0.0
2018-Feb-13 23:59N 29°50' W 093°57'0 0.0
2018-Feb-13 23:29N 29°50' W 093°57'0 0.0
2018-Feb-13 22:59N 29°50' W 093°57'0 0.0
2018-Feb-13 22:29N 29°50' W 093°57'0 0.0
2018-Feb-13 21:59N 29°50' W 093°57'0 0.0
2018-Feb-13 21:29N 29°50' W 093°57'0 0.0
2018-Feb-13 20:59N 29°50' W 093°57'0 0.0
2018-Feb-13 20:29N 29°50' W 093°57'0 0.0
2018-Feb-13 19:59N 29°50' W 093°57'0 0.0
2018-Feb-13 19:29N 29°50' W 093°57'0 0.0
2018-Feb-13 18:59N 29°50' W 093°57'0 0.0
2018-Feb-13 18:29N 29°50' W 093°57'0 0.0
2018-Feb-13 17:59N 29°50' W 093°57'0 0.0
2018-Feb-13 17:29N 29°50' W 093°57'0 0.0
2018-Feb-13 16:59N 29°50' W 093°57'0 0.0
2018-Feb-13 16:29N 29°50' W 093°57'0 0.0
2018-Feb-13 15:59N 29°50' W 093°57'0 0.0
2018-Feb-13 15:29N 29°50' W 093°57'0 0.0
2018-Feb-13 14:59N 29°50' W 093°57'0 0.0
2018-Feb-13 14:29N 29°50' W 093°57'0 0.0
2018-Feb-13 13:59N 29°50' W 093°57'0 0.0
2018-Feb-13 13:29N 29°50' W 093°57'0 0.0
2018-Feb-13 12:59N 29°50' W 093°57'0 0.0
2018-Feb-13 12:29N 29°50' W 093°57'0 0.0
2018-Feb-13 11:59N 29°50' W 093°57'0 0.0
2018-Feb-13 11:29N 29°50' W 093°57'0 0.0
2018-Feb-13 10:59N 29°50' W 093°57'0 0.0
2018-Feb-13 10:29N 29°50' W 093°57'0 0.0
2018-Feb-13 09:59N 29°50' W 093°57'0 0.0
2018-Feb-13 09:29N 29°50' W 093°57'0 0.0
2018-Feb-13 08:59N 29°50' W 093°57'0 0.0
2018-Feb-13 08:29N 29°50' W 093°57'0 0.0
2018-Feb-13 07:59N 29°50' W 093°57'0 0.0
2018-Feb-13 07:29N 29°50' W 093°57'0 0.0
2018-Feb-13 07:00N 29°50' W 093°57'0 0.0
2018-Feb-13 06:31N 29°50' W 093°57'0 0.9
2018-Feb-13 06:01N 29°50' W 093°58'0 0.2
2018-Feb-13 05:31N 29°50' W 093°58'0 0.0
2018-Feb-13 05:01N 29°50' W 093°58'0 0.0
2018-Feb-13 04:31N 29°50' W 093°58'0 0.0
2018-Feb-13 04:00N 29°50' W 093°58'0 0.0
2018-Feb-13 03:31N 29°50' W 093°58'0 0.0
2018-Feb-13 03:00N 29°50' W 093°58'0 0.0
2018-Feb-13 02:31N 29°50' W 093°58'0 0.0
2018-Feb-13 02:01N 29°50' W 093°58'0 0.0
2018-Feb-13 01:31N 29°50' W 093°58'0 0.0
2018-Feb-13 01:01N 29°50' W 093°58'0 0.0
2018-Feb-13 00:31N 29°50' W 093°58'0 0.0
2018-Feb-13 00:01N 29°50' W 093°58'0 0.0
2018-Feb-12 23:31N 29°50' W 093°58'0 0.0
2018-Feb-12 23:01N 29°50' W 093°58'0 0.0
2018-Feb-12 22:31N 29°50' W 093°58'0 0.0
2018-Feb-12 22:00N 29°50' W 093°58'0 0.0
2018-Feb-12 21:31N 29°50' W 093°58'0 0.0
2018-Feb-12 21:00N 29°50' W 093°58'0 0.0
2018-Feb-12 20:30N 29°50' W 093°58'0 0.0
2018-Feb-12 20:01N 29°50' W 093°58'0 0.0
2018-Feb-12 19:31N 29°50' W 093°58'0 0.0
2018-Feb-12 19:01N 29°50' W 093°58'0 0.0
2018-Feb-12 18:30N 29°50' W 093°58'0 0.0
2018-Feb-12 18:01N 29°50' W 093°58'0 0.0
2018-Feb-12 17:31N 29°50' W 093°58'0 0.0
2018-Feb-12 17:01N 29°50' W 093°58'0 0.0
2018-Feb-12 16:31N 29°50' W 093°58'0 0.0
2018-Feb-12 16:00N 29°50' W 093°58'0 0.0
2018-Feb-12 15:31N 29°50' W 093°58'0 0.0
2018-Feb-12 15:01N 29°50' W 093°58'0 0.0
2018-Feb-12 14:31N 29°50' W 093°58'0 0.0
2018-Feb-12 14:01N 29°50' W 093°58'0 0.0
2018-Feb-12 13:30N 29°50' W 093°58'0 0.0
2018-Feb-12 12:59N 29°50' W 093°58'0 0.0
2018-Feb-12 12:29N 29°50' W 093°58'0 0.0
2018-Feb-12 11:59N 29°50' W 093°58'0 0.0
2018-Feb-12 11:29N 29°50' W 093°58'0 0.0
2018-Feb-12 10:56N 29°50' W 093°58'0 0.0
2018-Feb-12 10:29N 29°50' W 093°58'0 0.0
2018-Feb-12 09:59N 29°50' W 093°58'0 0.0
2018-Feb-12 09:29N 29°50' W 093°58'0 0.0
2018-Feb-12 08:59N 29°50' W 093°58'0 0.0
2018-Feb-12 08:29N 29°50' W 093°58'0 0.0
2018-Feb-12 07:56N 29°50' W 093°58'0 0.0
2018-Feb-12 07:29N 29°50' W 093°58'0 0.0
2018-Feb-12 06:59N 29°50' W 093°58'0 0.0
2018-Feb-12 06:29N 29°50' W 093°58'0 0.0
2018-Feb-12 05:59N 29°50' W 093°58'0 0.0
2018-Feb-12 05:29N 29°50' W 093°58'0 0.0
2018-Feb-12 04:59N 29°50' W 093°58'0 0.0
2018-Feb-12 04:26N 29°50' W 093°58'0 0.0
2018-Feb-12 03:59N 29°50' W 093°58'0 0.0
2018-Feb-12 03:29N 29°50' W 093°58'0 0.0
2018-Feb-12 02:59N 29°50' W 093°58'0 0.0
2018-Feb-12 02:29N 29°50' W 093°58'0 0.0
2018-Feb-12 01:59N 29°50' W 093°58'0 0.0
2018-Feb-12 01:29N 29°50' W 093°58'0 0.0
2018-Feb-12 00:59N 29°50' W 093°58'0 0.0
2018-Feb-12 00:29N 29°50' W 093°58'0 0.0
2018-Feb-11 23:59N 29°50' W 093°58'0 0.0
2018-Feb-11 23:29N 29°50' W 093°58'0 0.0
2018-Feb-11 22:59N 29°50' W 093°58'0 0.0
2018-Feb-11 22:29N 29°50' W 093°58'0 0.0
2018-Feb-11 21:59N 29°50' W 093°58'0 0.0
2018-Feb-11 21:29N 29°50' W 093°58'0 0.0
2018-Feb-11 20:59N 29°50' W 093°58'0 0.0
2018-Feb-11 20:23N 29°50' W 093°58'0 0.0
2018-Feb-11 19:59N 29°50' W 093°58'0 0.0
2018-Feb-11 19:29N 29°50' W 093°58'0 0.0
2018-Feb-11 18:56N 29°50' W 093°58'0 0.0
2018-Feb-11 18:29N 29°50' W 093°58'0 0.0
2018-Feb-11 17:59N 29°50' W 093°58'0 0.0
2018-Feb-11 17:29N 29°50' W 093°58'0 0.0
2018-Feb-11 16:59N 29°50' W 093°58'0 0.0
2018-Feb-11 16:29N 29°50' W 093°58'0 0.0
2018-Feb-11 15:59N 29°50' W 093°58'0 0.0
2018-Feb-11 15:29N 29°50' W 093°58'0 0.0
2018-Feb-11 14:59N 29°50' W 093°58'0 0.0
2018-Feb-11 14:29N 29°50' W 093°58'  
Track history (hours):
 
Tides and Currents Weather Stations Pressure Air Temp Water Temp Dewpoint Dewpoint Depression Visibility Wind Speed Wind Dir Waves Ship Positions

Yellowstone

Last reported at 2018-Feb-21 14:18 UTC. Time now 2018-Feb-21 15:29 UTC.
Position N 29°45' W 095°06'.

Type: Cargo ship. MMSI: 365042000.

Date/timePositionNaut miles runAvg speedWind from/ knotsBaromVisibWave heightAir tempDewpointWater temp
2018-Feb-21 14:18N 29°45' W 095°06'0 0.0
2018-Feb-21 13:42N 29°45' W 095°06'0 0.0
2018-Feb-21 13:30N 29°45' W 095°06'0 0.0
2018-Feb-21 13:00N 29°45' W 095°06'0 0.0
2018-Feb-21 12:30N 29°45' W 095°06'0 0.0
2018-Feb-21 12:00N 29°45' W 095°06'0 0.0
2018-Feb-21 11:30N 29°45' W 095°06'0 0.0
2018-Feb-21 10:57N 29°45' W 095°06'0 0.0
2018-Feb-21 10:21N 29°45' W 095°06'0 0.0
2018-Feb-21 09:57N 29°45' W 095°06'0 0.0
2018-Feb-21 09:30N 29°45' W 095°06'0 0.0
2018-Feb-21 08:42N 29°45' W 095°06'0 0.0
2018-Feb-21 08:30N 29°45' W 095°06'0 0.0
2018-Feb-21 07:57N 29°45' W 095°06'0 0.0
2018-Feb-21 07:30N 29°45' W 095°06'0 0.0
2018-Feb-21 06:57N 29°45' W 095°06'0 0.0
2018-Feb-21 06:15N 29°45' W 095°06'0 0.0
2018-Feb-21 05:54N 29°45' W 095°06'0 0.0
2018-Feb-21 05:30N 29°45' W 095°06'0 0.0
2018-Feb-21 04:48N 29°45' W 095°06'0 0.0
2018-Feb-21 04:30N 29°45' W 095°06'0 0.0
2018-Feb-21 03:57N 29°45' W 095°06'0 0.0
2018-Feb-21 03:27N 29°45' W 095°06'0 0.0
2018-Feb-21 03:00N 29°45' W 095°06'1 2.8
2018-Feb-21 02:30N 29°46' W 095°05'4 7.8
2018-Feb-21 02:00N 29°44' W 095°01'4 8.7
2018-Feb-21 01:30N 29°40' W 094°59'510.6
2018-Feb-21 01:01N 29°35' W 094°56'611.1
2018-Feb-21 00:31N 29°31' W 094°53'611.1
2018-Feb-21 00:00N 29°26' W 094°50'810.5
2018-Feb-20 23:15N 29°21' W 094°43'311.6
2018-Feb-20 22:59N 29°19' W 094°39'510.8
2018-Feb-20 22:29N 29°17' W 094°34'3 6.5
2018-Feb-20 21:59N 29°18' W 094°30'0 1.0
2018-Feb-20 21:30N 29°18' W 094°30'0 0.0
2018-Feb-20 13:29N 29°18' W 094°30'0 0.0
2018-Feb-20 13:00N 29°18' W 094°30'0 0.0
2018-Feb-20 12:22N 29°18' W 094°30'0 0.0
2018-Feb-20 06:58N 29°18' W 094°30'0 0.0
2018-Feb-20 06:31N 29°18' W 094°30'0 0.0
2018-Feb-19 19:47N 29°18' W 094°30'0 0.4
2018-Feb-19 19:30N 29°18' W 094°30'1 1.8
2018-Feb-19 18:59N 29°19' W 094°29'510.5
2018-Feb-19 18:30N 29°15' W 094°24'611.4
2018-Feb-19 18:00N 29°12' W 094°19'611.1
2018-Feb-19 17:26N 29°16' W 094°13'510.8
2018-Feb-19 17:00N 29°19' W 094°09'510.4
2018-Feb-19 16:30N 29°23' W 094°05'510.4
2018-Feb-19 16:00N 29°27' W 094°01'510.2
2018-Feb-19 15:30N 29°29' W 093°56'510.6
2018-Feb-19 15:00N 29°30' W 093°50'5 9.6
2018-Feb-19 14:30N 29°32' W 093°44'5 9.6
2018-Feb-19 14:00N 29°29' W 093°40'3 5.7
2018-Feb-19 13:30N 29°26' W 093°38'0 0.3
2018-Feb-19 12:46N 29°27' W 093°38'0 0.0
2018-Feb-19 12:29N 29°27' W 093°38'0 0.0
2018-Feb-19 11:46N 29°27' W 093°38'0 0.0
2018-Feb-19 10:13N 29°27' W 093°38'0 0.0
2018-Feb-19 09:46N 29°27' W 093°38'0 0.0
2018-Feb-19 09:30N 29°27' W 093°38'0 0.0
2018-Feb-19 08:24N 29°27' W 093°38'0 0.0
2018-Feb-19 07:54N 29°27' W 093°38'0 0.0
2018-Feb-19 07:31N 29°27' W 093°38'0 0.0
2018-Feb-19 07:00N 29°27' W 093°38'0 0.0
2018-Feb-19 06:30N 29°27' W 093°38'0 0.0
2018-Feb-19 05:50N 29°27' W 093°38'0 0.0
2018-Feb-19 05:14N 29°27' W 093°38'0 0.0
2018-Feb-19 05:00N 29°27' W 093°38'0 0.0
2018-Feb-19 04:31N 29°27' W 093°38'0 0.0
2018-Feb-19 03:59N 29°26' W 093°38'0 0.0
2018-Feb-19 03:27N 29°26' W 093°38'0 0.1
2018-Feb-19 01:42N 29°26' W 093°38'0 0.4
2018-Feb-19 01:31N 29°26' W 093°38'2 3.0
2018-Feb-19 00:59N 29°27' W 093°40'4 7.6
2018-Feb-19 00:30N 29°30' W 093°42'510.6
2018-Feb-19 00:00N 29°34' W 093°46'5 9.8
2018-Feb-18 23:30N 29°38' W 093°49'4 8.7
2018-Feb-18 23:01N 29°42' W 093°51'4 7.1
2018-Feb-18 22:30N 29°45' W 093°53'4 8.4
2018-Feb-18 22:00N 29°48' W 093°57'2 4.7
2018-Feb-18 21:31N 29°50' W 093°58'0 0.9
2018-Feb-18 21:00N 29°50' W 093°57'0 0.0
2018-Feb-18 20:31N 29°50' W 093°57'0 0.0
2018-Feb-18 19:58N 29°50' W 093°57'0 0.0
2018-Feb-18 19:28N 29°50' W 093°57'0 0.0
2018-Feb-18 18:58N 29°50' W 093°57'0 0.0
2018-Feb-18 18:28N 29°50' W 093°57'0 0.0
2018-Feb-18 17:58N 29°50' W 093°57'0 0.0
2018-Feb-18 17:28N 29°50' W 093°57'0 0.0
2018-Feb-18 16:58N 29°50' W 093°57'0 0.0
2018-Feb-18 16:28N 29°50' W 093°57'0 0.0
2018-Feb-18 15:58N 29°50' W 093°57'0 0.0
2018-Feb-18 15:29N 29°50' W 093°57'0 0.0
2018-Feb-18 14:58N 29°50' W 093°57'0 0.0
2018-Feb-18 14:28N 29°50' W 093°57'0 0.0
2018-Feb-18 13:58N 29°50' W 093°57'0 0.0
2018-Feb-18 13:28N 29°50' W 093°57'0 0.0
2018-Feb-18 12:58N 29°50' W 093°57'0 0.0
2018-Feb-18 12:28N 29°50' W 093°57'0 0.0
2018-Feb-18 11:59N 29°50' W 093°57'0 0.0
2018-Feb-18 11:28N 29°50' W 093°57'0 0.0
2018-Feb-18 10:58N 29°50' W 093°57'0 0.0
2018-Feb-18 10:28N 29°50' W 093°57'0 0.0
2018-Feb-18 09:58N 29°50' W 093°57'0 0.0
2018-Feb-18 09:28N 29°50' W 093°57'0 0.0
2018-Feb-18 08:58N 29°50' W 093°57'0 0.0
2018-Feb-18 08:28N 29°50' W 093°57'0 0.0
2018-Feb-18 07:58N 29°50' W 093°57'0 0.0
2018-Feb-18 07:28N 29°50' W 093°57'0 0.0
2018-Feb-18 06:58N 29°50' W 093°57'0 0.0
2018-Feb-18 06:28N 29°50' W 093°57'0 0.0
2018-Feb-18 05:58N 29°50' W 093°57'0 0.0
2018-Feb-18 05:28N 29°50' W 093°57'0 0.0
2018-Feb-18 04:58N 29°50' W 093°57'0 0.0
2018-Feb-18 04:28N 29°50' W 093°57'0 0.0
2018-Feb-18 03:58N 29°50' W 093°57'0 0.0
2018-Feb-18 03:28N 29°50' W 093°57'0 0.0
2018-Feb-18 02:58N 29°50' W 093°57'0 0.0
2018-Feb-18 02:28N 29°50' W 093°57'0 0.0
2018-Feb-18 01:58N 29°50' W 093°57'0 0.0
2018-Feb-18 01:28N 29°50' W 093°57'0 0.0
2018-Feb-18 00:58N 29°50' W 093°57'0 0.0
2018-Feb-18 00:28N 29°50' W 093°57'0 0.0
2018-Feb-17 23:58N 29°50' W 093°57'0 0.0
2018-Feb-17 23:28N 29°50' W 093°57'0 0.0
2018-Feb-17 22:58N 29°50' W 093°57'0 0.0
2018-Feb-17 22:28N 29°50' W 093°57'0 0.0
2018-Feb-17 21:59N 29°50' W 093°57'0 0.0
2018-Feb-17 21:28N 29°50' W 093°57'0 0.0
2018-Feb-17 20:58N 29°50' W 093°57'0 0.0
2018-Feb-17 20:28N 29°50' W 093°57'0 0.0
2018-Feb-17 19:58N 29°50' W 093°57'0 0.0
2018-Feb-17 19:28N 29°50' W 093°57'0 0.0
2018-Feb-17 18:58N 29°50' W 093°57'0 0.0
2018-Feb-17 18:28N 29°50' W 093°57'0 0.0
2018-Feb-17 17:58N 29°50' W 093°57'0 0.0
2018-Feb-17 17:28N 29°50' W 093°57'0 0.0
2018-Feb-17 16:58N 29°50' W 093°57'0 0.0
2018-Feb-17 16:28N 29°50' W 093°57'0 0.0
2018-Feb-17 15:58N 29°50' W 093°57'0 0.0
2018-Feb-17 15:28N 29°50' W 093°57'0 0.0
2018-Feb-17 14:58N 29°50' W 093°57'0 0.0
2018-Feb-17 14:29N 29°50' W 093°57'0 0.0
2018-Feb-17 13:58N 29°50' W 093°57'0 0.0
2018-Feb-17 13:29N 29°50' W 093°57'0 0.0
2018-Feb-17 12:58N 29°50' W 093°57'0 0.0
2018-Feb-17 12:29N 29°50' W 093°57'0 0.0
2018-Feb-17 11:58N 29°50' W 093°57'0 0.0
2018-Feb-17 11:28N 29°50' W 093°57'0 0.0
2018-Feb-17 10:58N 29°50' W 093°57'0 0.0
2018-Feb-17 10:29N 29°50' W 093°57'0 0.0
2018-Feb-17 09:58N 29°50' W 093°57'0 0.0
2018-Feb-17 09:28N 29°50' W 093°57'0 0.0
2018-Feb-17 08:58N 29°50' W 093°57'0 0.0
2018-Feb-17 08:28N 29°50' W 093°57'0 0.0
2018-Feb-17 07:59N 29°50' W 093°57'0 0.0
2018-Feb-17 07:28N 29°50' W 093°57'0 0.0
2018-Feb-17 07:01N 29°50' W 093°57'0 0.0
2018-Feb-17 06:30N 29°50' W 093°57'0 0.0
2018-Feb-17 06:00N 29°50' W 093°57'0 0.0
2018-Feb-17 05:30N 29°50' W 093°57'0 0.0
2018-Feb-17 05:00N 29°50' W 093°57'0 0.0
2018-Feb-17 04:30N 29°50' W 093°57'0 0.0
2018-Feb-17 04:00N 29°50' W 093°57'0 0.0
2018-Feb-17 03:30N 29°50' W 093°57'0 0.0
2018-Feb-17 03:00N 29°50' W 093°57'0 0.0
2018-Feb-17 02:30N 29°50' W 093°57'0 0.0
2018-Feb-17 02:00N 29°50' W 093°57'0 0.0
2018-Feb-17 01:30N 29°50' W 093°57'0 0.0
2018-Feb-17 01:00N 29°50' W 093°57'0 0.0
2018-Feb-17 00:30N 29°50' W 093°57'0 0.0
2018-Feb-17 00:00N 29°50' W 093°57'0 0.0
2018-Feb-16 23:30N 29°50' W 093°57'0 0.0
2018-Feb-16 23:00N 29°50' W 093°57'0 0.0
2018-Feb-16 22:30N 29°50' W 093°57'0 0.0
2018-Feb-16 22:00N 29°50' W 093°57'0 0.0
2018-Feb-16 21:30N 29°50' W 093°57'0 0.0
2018-Feb-16 21:00N 29°50' W 093°57'0 0.0
2018-Feb-16 20:30N 29°50' W 093°57'0 0.0
2018-Feb-16 20:00N 29°50' W 093°57'0 0.0
2018-Feb-16 19:30N 29°50' W 093°57'0 0.0
2018-Feb-16 19:00N 29°50' W 093°57'0 0.0
2018-Feb-16 18:30N 29°50' W 093°57'0 0.0
2018-Feb-16 18:00N 29°50' W 093°57'0 0.0
2018-Feb-16 17:30N 29°50' W 093°57'0 0.0
2018-Feb-16 17:00N 29°50' W 093°57'0 0.0
2018-Feb-16 16:30N 29°50' W 093°57'0 0.0
2018-Feb-16 16:00N 29°50' W 093°57'0 0.0
2018-Feb-16 15:30N 29°50' W 093°57'0 0.0
2018-Feb-16 15:00N 29°50' W 093°57'0 0.0
2018-Feb-16 14:30N 29°50' W 093°57'0 0.0
2018-Feb-16 14:00N 29°50' W 093°57'0 0.0
2018-Feb-16 13:30N 29°50' W 093°57'0 0.0
2018-Feb-16 13:00N 29°50' W 093°57'0 0.0
2018-Feb-16 12:30N 29°50' W 093°57'0 0.0
2018-Feb-16 12:00N 29°50' W 093°57'0 0.0
2018-Feb-16 11:30N 29°50' W 093°57'0 0.0
2018-Feb-16 11:00N 29°50' W 093°57'0 0.0
2018-Feb-16 10:30N 29°50' W 093°57'0 0.0
2018-Feb-16 10:00N 29°50' W 093°57'0 0.0
2018-Feb-16 09:30N 29°50' W 093°57'0 0.0
2018-Feb-16 09:00N 29°50' W 093°57'0 0.0
2018-Feb-16 08:30N 29°50' W 093°57'0 0.0
2018-Feb-16 08:00N 29°50' W 093°57'0 0.0
2018-Feb-16 07:30N 29°50' W 093°57'0 0.0
2018-Feb-16 07:00N 29°50' W 093°57'0 0.0
2018-Feb-16 06:30N 29°50' W 093°57'0 0.0
2018-Feb-16 06:00N 29°50' W 093°57'0 0.0
2018-Feb-16 05:30N 29°50' W 093°57'0 0.0
2018-Feb-16 05:00N 29°50' W 093°57'0 0.0
2018-Feb-16 04:30N 29°50' W 093°57'0 0.0
2018-Feb-16 04:00N 29°50' W 093°57'0 0.0
2018-Feb-16 03:30N 29°50' W 093°57'0 0.0
2018-Feb-16 03:00N 29°50' W 093°57'0 0.0
2018-Feb-16 02:27N 29°50' W 093°57'0 0.0
2018-Feb-16 02:00N 29°50' W 093°57'0 0.0
2018-Feb-16 01:30N 29°50' W 093°57'0 0.0
2018-Feb-16 01:00N 29°50' W 093°57'0 0.0
2018-Feb-16 00:30N 29°50' W 093°57'0 0.0
2018-Feb-16 00:00N 29°50' W 093°57'0 0.0
2018-Feb-15 23:30N 29°50' W 093°57'0 0.0
2018-Feb-15 23:00N 29°50' W 093°57'0 0.0
2018-Feb-15 22:30N 29°50' W 093°57'0 0.0
2018-Feb-15 22:00N 29°50' W 093°57'0 0.0
2018-Feb-15 21:30N 29°50' W 093°57'0 0.0
2018-Feb-15 21:00N 29°50' W 093°57'0 0.0
2018-Feb-15 20:30N 29°50' W 093°57'0 0.0
2018-Feb-15 20:00N 29°50' W 093°57'0 0.0
2018-Feb-15 19:30N 29°50' W 093°57'0 0.0
2018-Feb-15 19:00N 29°50' W 093°57'0 0.0
2018-Feb-15 18:30N 29°50' W 093°57'0 0.0
2018-Feb-15 18:00N 29°50' W 093°57'0 0.0
2018-Feb-15 17:30N 29°50' W 093°57'0 0.0
2018-Feb-15 16:57N 29°50' W 093°57'0 0.0
2018-Feb-15 16:30N 29°50' W 093°57'0 0.0
2018-Feb-15 16:00N 29°50' W 093°57'0 0.0
2018-Feb-15 15:30N 29°50' W 093°57'0 0.0
2018-Feb-15 15:00N 29°50' W 093°57'0 0.0
2018-Feb-15 14:30N 29°50' W 093°57'0 0.0
2018-Feb-15 14:00N 29°50' W 093°57'0 0.0
2018-Feb-15 13:30N 29°50' W 093°57'0 0.0
2018-Feb-15 13:00N 29°50' W 093°57'0 0.0
2018-Feb-15 12:30N 29°50' W 093°57'0 0.0
2018-Feb-15 12:00N 29°50' W 093°57'0 0.0
2018-Feb-15 11:30N 29°50' W 093°57'0 0.0
2018-Feb-15 11:00N 29°50' W 093°57'0 0.0
2018-Feb-15 10:30N 29°50' W 093°57'0 0.0
2018-Feb-15 10:00N 29°50' W 093°57'0 0.0
2018-Feb-15 09:30N 29°50' W 093°57'0 0.0
2018-Feb-15 09:00N 29°50' W 093°57'0 0.0
2018-Feb-15 08:30N 29°50' W 093°57'0 0.0
2018-Feb-15 08:00N 29°50' W 093°57'0 0.0
2018-Feb-15 07:30N 29°50' W 093°57'0 0.0
2018-Feb-15 06:59N 29°50' W 093°57'0 0.0
2018-Feb-15 06:29N 29°50' W 093°57'0 0.0
2018-Feb-15 05:59N 29°50' W 093°57'0 0.0
2018-Feb-15 05:29N 29°50' W 093°57'0 0.0
2018-Feb-15 04:59N 29°50' W 093°57'0 0.0
2018-Feb-15 04:29N 29°50' W 093°57'0 0.0
2018-Feb-15 03:59N 29°50' W 093°57'0 0.0
2018-Feb-15 03:29N 29°50' W 093°57'0 0.0
2018-Feb-15 02:59N 29°50' W 093°57'0 0.0
2018-Feb-15 02:29N 29°50' W 093°57'0 0.0
2018-Feb-15 01:59N 29°50' W 093°57'0 0.0
2018-Feb-15 01:29N 29°50' W 093°57'0 0.0
2018-Feb-15 00:59N 29°50' W 093°57'0 0.0
2018-Feb-15 00:29N 29°50' W 093°57'0 0.0
2018-Feb-14 23:59N 29°50' W 093°57'0 0.0
2018-Feb-14 23:29N 29°50' W 093°57'0 0.0
2018-Feb-14 22:59N 29°50' W 093°57'0 0.0
2018-Feb-14 22:29N 29°50' W 093°57'0 0.0
2018-Feb-14 21:59N 29°50' W 093°57'0 0.0
2018-Feb-14 21:29N 29°50' W 093°57'0 0.0
2018-Feb-14 20:59N 29°50' W 093°57'0 0.0
2018-Feb-14 20:29N 29°50' W 093°57'0 0.0
2018-Feb-14 19:59N 29°50' W 093°57'0 0.0
2018-Feb-14 19:29N 29°50' W 093°57'0 0.0
2018-Feb-14 18:59N 29°50' W 093°57'0 0.0
2018-Feb-14 18:29N 29°50' W 093°57'0 0.0
2018-Feb-14 17:59N 29°50' W 093°57'0 0.0
2018-Feb-14 17:29N 29°50' W 093°57'0 0.0
2018-Feb-14 16:59N 29°50' W 093°57'0 0.0
2018-Feb-14 16:29N 29°50' W 093°57'0 0.0
2018-Feb-14 15:59N 29°50' W 093°57'0 0.0
2018-Feb-14 15:29N 29°50' W 093°57'0 0.0
2018-Feb-14 14:59N 29°50' W 093°57'0 0.0
2018-Feb-14 14:29N 29°50' W 093°57'0 0.0
2018-Feb-14 13:59N 29°50' W 093°57'0 0.0
2018-Feb-14 13:29N 29°50' W 093°57'0 0.0
2018-Feb-14 12:59N 29°50' W 093°57'0 0.0
2018-Feb-14 12:29N 29°50' W 093°57'0 0.0
2018-Feb-14 11:59N 29°50' W 093°57'0 0.0
2018-Feb-14 11:29N 29°50' W 093°57'0 0.0
2018-Feb-14 10:59N 29°50' W 093°57'0 0.0
2018-Feb-14 10:29N 29°50' W 093°57'0 0.0
2018-Feb-14 09:59N 29°50' W 093°57'0 0.0
2018-Feb-14 09:29N 29°50' W 093°57'0 0.0
2018-Feb-14 08:59N 29°50' W 093°57'0 0.0
2018-Feb-14 08:29N 29°50' W 093°57'0 0.0
2018-Feb-14 07:59N 29°50' W 093°57'0 0.0
2018-Feb-14 07:29N 29°50' W 093°57'0 0.0
2018-Feb-14 06:59N 29°50' W 093°57'0 0.0
2018-Feb-14 06:29N 29°50' W 093°57'0 0.0
2018-Feb-14 05:59N 29°50' W 093°57'0 0.0
2018-Feb-14 05:29N 29°50' W 093°57'0 0.0
2018-Feb-14 04:59N 29°50' W 093°57'0 0.0
2018-Feb-14 04:29N 29°50' W 093°57'0 0.0
2018-Feb-14 03:59N 29°50' W 093°57'0 0.0
2018-Feb-14 03:29N 29°50' W 093°57'0 0.0
2018-Feb-14 02:59N 29°50' W 093°57'0 0.0
2018-Feb-14 02:29N 29°50' W 093°57'0 0.0
2018-Feb-14 01:59N 29°50' W 093°57'0 0.0
2018-Feb-14 01:29N 29°50' W 093°57'0 0.0
2018-Feb-14 00:59N 29°50' W 093°57'0 0.0
2018-Feb-14 00:29N 29°50' W 093°57'0 0.0
2018-Feb-13 23:59N 29°50' W 093°57'0 0.0
2018-Feb-13 23:29N 29°50' W 093°57'0 0.0
2018-Feb-13 22:59N 29°50' W 093°57'0 0.0
2018-Feb-13 22:29N 29°50' W 093°57'0 0.0
2018-Feb-13 21:59N 29°50' W 093°57'0 0.0
2018-Feb-13 21:29N 29°50' W 093°57'0 0.0
2018-Feb-13 20:59N 29°50' W 093°57'0 0.0
2018-Feb-13 20:29N 29°50' W 093°57'0 0.0
2018-Feb-13 19:59N 29°50' W 093°57'0 0.0
2018-Feb-13 19:29N 29°50' W 093°57'0 0.0
2018-Feb-13 18:59N 29°50' W 093°57'0 0.0
2018-Feb-13 18:29N 29°50' W 093°57'0 0.0
2018-Feb-13 17:59N 29°50' W 093°57'0 0.0
2018-Feb-13 17:29N 29°50' W 093°57'0 0.0
2018-Feb-13 16:59N 29°50' W 093°57'0 0.0
2018-Feb-13 16:29N 29°50' W 093°57'0 0.0
2018-Feb-13 15:59N 29°50' W 093°57'0 0.0
2018-Feb-13 15:29N 29°50' W 093°57'0 0.0
2018-Feb-13 14:59N 29°50' W 093°57'0 0.0
2018-Feb-13 14:29N 29°50' W 093°57'0 0.0
2018-Feb-13 13:59N 29°50' W 093°57'0 0.0
2018-Feb-13 13:29N 29°50' W 093°57'0 0.0
2018-Feb-13 12:59N 29°50' W 093°57'0 0.0
2018-Feb-13 12:29N 29°50' W 093°57'0 0.0
2018-Feb-13 11:59N 29°50' W 093°57'0 0.0
2018-Feb-13 11:29N 29°50' W 093°57'0 0.0
2018-Feb-13 10:59N 29°50' W 093°57'0 0.0
2018-Feb-13 10:29N 29°50' W 093°57'0 0.0
2018-Feb-13 09:59N 29°50' W 093°57'0 0.0
2018-Feb-13 09:29N 29°50' W 093°57'0 0.0
2018-Feb-13 08:59N 29°50' W 093°57'0 0.0
2018-Feb-13 08:29N 29°50' W 093°57'0 0.0
2018-Feb-13 07:59N 29°50' W 093°57'0 0.0
2018-Feb-13 07:29N 29°50' W 093°57'0 0.0
2018-Feb-13 07:00N 29°50' W 093°57'0 0.0
2018-Feb-13 06:31N 29°50' W 093°57'0 0.9
2018-Feb-13 06:01N 29°50' W 093°58'0 0.2
2018-Feb-13 05:31N 29°50' W 093°58'0 0.0
2018-Feb-13 05:01N 29°50' W 093°58'0 0.0
2018-Feb-13 04:31N 29°50' W 093°58'0 0.0
2018-Feb-13 04:00N 29°50' W 093°58'0 0.0
2018-Feb-13 03:31N 29°50' W 093°58'0 0.0
2018-Feb-13 03:00N 29°50' W 093°58'0 0.0
2018-Feb-13 02:31N 29°50' W 093°58'0 0.0
2018-Feb-13 02:01N 29°50' W 093°58'0 0.0
2018-Feb-13 01:31N 29°50' W 093°58'0 0.0
2018-Feb-13 01:01N 29°50' W 093°58'0 0.0
2018-Feb-13 00:31N 29°50' W 093°58'0 0.0
2018-Feb-13 00:01N 29°50' W 093°58'0 0.0
2018-Feb-12 23:31N 29°50' W 093°58'0 0.0
2018-Feb-12 23:01N 29°50' W 093°58'0 0.0
2018-Feb-12 22:31N 29°50' W 093°58'0 0.0
2018-Feb-12 22:00N 29°50' W 093°58'0 0.0
2018-Feb-12 21:31N 29°50' W 093°58'0 0.0
2018-Feb-12 21:00N 29°50' W 093°58'0 0.0
2018-Feb-12 20:30N 29°50' W 093°58'0 0.0
2018-Feb-12 20:01N 29°50' W 093°58'0 0.0
2018-Feb-12 19:31N 29°50' W 093°58'0 0.0
2018-Feb-12 19:01N 29°50' W 093°58'0 0.0
2018-Feb-12 18:30N 29°50' W 093°58'0 0.0
2018-Feb-12 18:01N 29°50' W 093°58'0 0.0
2018-Feb-12 17:31N 29°50' W 093°58'0 0.0
2018-Feb-12 17:01N 29°50' W 093°58'0 0.0
2018-Feb-12 16:31N 29°50' W 093°58'0 0.0
2018-Feb-12 16:00N 29°50' W 093°58'0 0.0
2018-Feb-12 15:31N 29°50' W 093°58'0 0.0
2018-Feb-12 15:01N 29°50' W 093°58'0 0.0
2018-Feb-12 14:31N 29°50' W 093°58'0 0.0
2018-Feb-12 14:01N 29°50' W 093°58'0 0.0
2018-Feb-12 13:30N 29°50' W 093°58'0 0.0
2018-Feb-12 12:59N 29°50' W 093°58'0 0.0
2018-Feb-12 12:29N 29°50' W 093°58'0 0.0
2018-Feb-12 11:59N 29°50' W 093°58'0 0.0
2018-Feb-12 11:29N 29°50' W 093°58'0 0.0
2018-Feb-12 10:56N 29°50' W 093°58'0 0.0
2018-Feb-12 10:29N 29°50' W 093°58'0 0.0
2018-Feb-12 09:59N 29°50' W 093°58'0 0.0
2018-Feb-12 09:29N 29°50' W 093°58'0 0.0
2018-Feb-12 08:59N 29°50' W 093°58'0 0.0
2018-Feb-12 08:29N 29°50' W 093°58'0 0.0
2018-Feb-12 07:56N 29°50' W 093°58'0 0.0
2018-Feb-12 07:29N 29°50' W 093°58'0 0.0
2018-Feb-12 06:59N 29°50' W 093°58'0 0.0
2018-Feb-12 06:29N 29°50' W 093°58'0 0.0
2018-Feb-12 05:59N 29°50' W 093°58'0 0.0
2018-Feb-12 05:29N 29°50' W 093°58'0 0.0
2018-Feb-12 04:59N 29°50' W 093°58'0 0.0
2018-Feb-12 04:26N 29°50' W 093°58'0 0.0
2018-Feb-12 03:59N 29°50' W 093°58'0 0.0
2018-Feb-12 03:29N 29°50' W 093°58'0 0.0
2018-Feb-12 02:59N 29°50' W 093°58'0 0.0
2018-Feb-12 02:29N 29°50' W 093°58'0 0.0
2018-Feb-12 01:59N 29°50' W 093°58'0 0.0
2018-Feb-12 01:29N 29°50' W 093°58'0 0.0
2018-Feb-12 00:59N 29°50' W 093°58'0 0.0
2018-Feb-12 00:29N 29°50' W 093°58'0 0.0
2018-Feb-11 23:59N 29°50' W 093°58'0 0.0
2018-Feb-11 23:29N 29°50' W 093°58'0 0.0
2018-Feb-11 22:59N 29°50' W 093°58'0 0.0
2018-Feb-11 22:29N 29°50' W 093°58'0 0.0
2018-Feb-11 21:59N 29°50' W 093°58'0 0.0
2018-Feb-11 21:29N 29°50' W 093°58'0 0.0
2018-Feb-11 20:59N 29°50' W 093°58'0 0.0
2018-Feb-11 20:23N 29°50' W 093°58'0 0.0
2018-Feb-11 19:59N 29°50' W 093°58'0 0.0
2018-Feb-11 19:29N 29°50' W 093°58'0 0.0
2018-Feb-11 18:56N 29°50' W 093°58'0 0.0
2018-Feb-11 18:29N 29°50' W 093°58'0 0.0
2018-Feb-11 17:59N 29°50' W 093°58'0 0.0
2018-Feb-11 17:29N 29°50' W 093°58'0 0.0
2018-Feb-11 16:59N 29°50' W 093°58'0 0.0
2018-Feb-11 16:29N 29°50' W 093°58'0 0.0
2018-Feb-11 15:59N 29°50' W 093°58'0 0.0
2018-Feb-11 15:29N 29°50' W 093°58'0 0.0
2018-Feb-11 14:59N 29°50' W 093°58'0 0.0
2018-Feb-11 14:29N 29°50' W 093°58'  

Dump ship's entire track history